sensor_id;sensor_type;location;lat;lon;timestamp;pressure;altitude;pressure_sealevel;temperature;humidity
63088;BME280;49173;43.164;27.786;2023-05-13T00:01:43;101114.94;;;11.08;67.89
63088;BME280;49173;43.164;27.786;2023-05-13T00:04:09;101119.47;;;11.06;67.84
63088;BME280;49173;43.164;27.786;2023-05-13T00:06:35;101121.44;;;11.03;68.19
63088;BME280;49173;43.164;27.786;2023-05-13T00:09:02;101118.84;;;11.01;67.74
63088;BME280;49173;43.164;27.786;2023-05-13T00:11:27;101119.81;;;10.98;67.76
63088;BME280;49173;43.164;27.786;2023-05-13T00:13:53;101125.19;;;10.98;67.92
63088;BME280;49173;43.164;27.786;2023-05-13T00:16:19;101125.28;;;10.97;67.93
63088;BME280;49173;43.164;27.786;2023-05-13T00:18:48;101123.59;;;10.94;67.54
63088;BME280;49173;43.164;27.786;2023-05-13T00:21:14;101124.41;;;10.96;67.69
63088;BME280;49173;43.164;27.786;2023-05-13T00:23:41;101124.66;;;10.90;67.37
63088;BME280;49173;43.164;27.786;2023-05-13T00:26:06;101122.84;;;10.91;67.10
63088;BME280;49173;43.164;27.786;2023-05-13T00:28:32;101119.28;;;10.90;67.05
63088;BME280;49173;43.164;27.786;2023-05-13T00:30:58;101120.16;;;10.91;67.04
63088;BME280;49173;43.164;27.786;2023-05-13T00:33:24;101127.44;;;10.89;66.95
63088;BME280;49173;43.164;27.786;2023-05-13T00:35:50;101124.06;;;10.84;66.89
63088;BME280;49173;43.164;27.786;2023-05-13T00:38:16;101124.22;;;10.81;66.64
63088;BME280;49173;43.164;27.786;2023-05-13T00:40:42;101114.69;;;10.73;66.76
63088;BME280;49173;43.164;27.786;2023-05-13T00:43:09;101122.81;;;10.72;66.39
63088;BME280;49173;43.164;27.786;2023-05-13T00:45:36;101121.19;;;10.68;66.61
63088;BME280;49173;43.164;27.786;2023-05-13T00:48:22;101120.31;;;10.67;66.62
63088;BME280;49173;43.164;27.786;2023-05-13T00:50:48;101121.31;;;10.65;66.61
63088;BME280;49173;43.164;27.786;2023-05-13T00:53:15;101121.31;;;10.65;66.39
63088;BME280;49173;43.164;27.786;2023-05-13T00:55:43;101120.56;;;10.61;66.32
63088;BME280;49173;43.164;27.786;2023-05-13T00:58:09;101127.69;;;10.62;66.33
63088;BME280;49173;43.164;27.786;2023-05-13T01:00:52;101127.69;;;10.62;66.15
63088;BME280;49173;43.164;27.786;2023-05-13T01:04:09;101121.50;;;10.60;66.21
63088;BME280;49173;43.164;27.786;2023-05-13T01:09:00;101126.00;;;10.60;65.95
63088;BME280;49173;43.164;27.786;2023-05-13T01:11:29;101129.72;;;10.57;65.98
63088;BME280;49173;43.164;27.786;2023-05-13T01:14:05;101129.81;;;10.54;66.77
63088;BME280;49173;43.164;27.786;2023-05-13T01:16:47;101130.91;;;10.50;66.81
63088;BME280;49173;43.164;27.786;2023-05-13T01:19:24;101134.56;;;10.48;66.59
63088;BME280;49173;43.164;27.786;2023-05-13T01:21:51;101131.19;;;10.42;66.50
63088;BME280;49173;43.164;27.786;2023-05-13T01:24:17;101128.84;;;10.35;66.65
63088;BME280;49173;43.164;27.786;2023-05-13T01:26:43;101138.97;;;10.28;66.79
63088;BME280;49173;43.164;27.786;2023-05-13T01:29:09;101140.97;;;10.23;66.79
63088;BME280;49173;43.164;27.786;2023-05-13T01:31:35;101144.53;;;10.24;66.83
63088;BME280;49173;43.164;27.786;2023-05-13T01:34:02;101143.66;;;10.22;67.25
63088;BME280;49173;43.164;27.786;2023-05-13T01:36:28;101141.13;;;10.18;66.99
63088;BME280;49173;43.164;27.786;2023-05-13T01:38:55;101133.22;;;10.15;67.02
63088;BME280;49173;43.164;27.786;2023-05-13T01:41:21;101138.69;;;10.12;67.41
63088;BME280;49173;43.164;27.786;2023-05-13T01:43:46;101135.28;;;10.09;67.45
63088;BME280;49173;43.164;27.786;2023-05-13T01:46:12;101131.09;;;10.02;67.71
63088;BME280;49173;43.164;27.786;2023-05-13T01:48:38;101139.19;;;10.00;68.03
63088;BME280;49173;43.164;27.786;2023-05-13T01:51:04;101133.94;;;9.97;68.17
63088;BME280;49173;43.164;27.786;2023-05-13T01:53:30;101139.31;;;9.97;67.99
63088;BME280;49173;43.164;27.786;2023-05-13T01:55:56;101143.91;;;9.94;67.88
63088;BME280;49173;43.164;27.786;2023-05-13T01:58:21;101136.75;;;9.94;68.06
63088;BME280;49173;43.164;27.786;2023-05-13T02:00:47;101127.16;;;9.88;68.30
63088;BME280;49173;43.164;27.786;2023-05-13T02:03:13;101138.81;;;9.87;67.99
63088;BME280;49173;43.164;27.786;2023-05-13T02:05:39;101143.31;;;9.87;68.09
63088;BME280;49173;43.164;27.786;2023-05-13T02:08:05;101144.22;;;9.86;68.15
63088;BME280;49173;43.164;27.786;2023-05-13T02:10:32;101147.91;;;9.83;68.17
63088;BME280;49173;43.164;27.786;2023-05-13T02:12:58;101147.84;;;9.85;67.92
63088;BME280;49173;43.164;27.786;2023-05-13T02:15:24;101161.38;;;9.82;67.84
63088;BME280;49173;43.164;27.786;2023-05-13T02:17:50;101158.78;;;9.79;67.81
63088;BME280;49173;43.164;27.786;2023-05-13T02:20:16;101158.75;;;9.80;67.44
63088;BME280;49173;43.164;27.786;2023-05-13T02:22:41;101154.31;;;9.79;67.58
63088;BME280;49173;43.164;27.786;2023-05-13T02:25:08;101162.34;;;9.79;67.90
63088;BME280;49173;43.164;27.786;2023-05-13T02:27:34;101164.34;;;9.74;67.54
63088;BME280;49173;43.164;27.786;2023-05-13T02:30:00;101163.53;;;9.72;68.09
63088;BME280;49173;43.164;27.786;2023-05-13T02:32:26;101163.72;;;9.68;68.21
63088;BME280;49173;43.164;27.786;2023-05-13T02:34:52;101164.75;;;9.63;68.57
63088;BME280;49173;43.164;27.786;2023-05-13T02:37:17;101152.34;;;9.61;68.53
63088;BME280;49173;43.164;27.786;2023-05-13T02:39:43;101156.06;;;9.57;68.74
63088;BME280;49173;43.164;27.786;2023-05-13T02:42:09;101161.34;;;9.60;68.44
63088;BME280;49173;43.164;27.786;2023-05-13T02:44:35;101173.03;;;9.57;68.64
63088;BME280;49173;43.164;27.786;2023-05-13T02:47:01;101173.91;;;9.58;68.23
63088;BME280;49173;43.164;27.786;2023-05-13T02:49:27;101171.28;;;9.56;68.56
63088;BME280;49173;43.164;27.786;2023-05-13T02:51:52;101173.97;;;9.56;68.49
63088;BME280;49173;43.164;27.786;2023-05-13T02:54:18;101176.63;;;9.56;68.36
63088;BME280;49173;43.164;27.786;2023-05-13T02:56:44;101165.91;;;9.56;68.36
63088;BME280;49173;43.164;27.786;2023-05-13T02:59:10;101169.53;;;9.55;68.75
63088;BME280;49173;43.164;27.786;2023-05-13T03:01:36;101174.03;;;9.55;68.59
63088;BME280;49173;43.164;27.786;2023-05-13T03:04:01;101173.16;;;9.54;68.45
63088;BME280;49173;43.164;27.786;2023-05-13T03:06:29;101173.09;;;9.56;68.34
63088;BME280;49173;43.164;27.786;2023-05-13T03:08:56;101176.53;;;9.59;68.09
63088;BME280;49173;43.164;27.786;2023-05-13T03:11:22;101181.91;;;9.59;68.55
63088;BME280;49173;43.164;27.786;2023-05-13T03:13:47;101195.16;;;9.62;68.41
63088;BME280;49173;43.164;27.786;2023-05-13T03:16:13;101189.88;;;9.61;67.96
63088;BME280;49173;43.164;27.786;2023-05-13T03:18:39;101191.63;;;9.62;68.41
63088;BME280;49173;43.164;27.786;2023-05-13T03:21:05;101191.56;;;9.63;68.19
63088;BME280;49173;43.164;27.786;2023-05-13T03:23:32;101212.03;;;9.66;68.48
63088;BME280;49173;43.164;27.786;2023-05-13T03:25:58;101204.78;;;9.68;68.88
63088;BME280;49173;43.164;27.786;2023-05-13T03:28:23;101204.72;;;9.70;68.90
63088;BME280;49173;43.164;27.786;2023-05-13T03:30:49;101204.72;;;9.70;69.24
63088;BME280;49173;43.164;27.786;2023-05-13T03:33:15;101208.19;;;9.73;69.60
63088;BME280;49173;43.164;27.786;2023-05-13T03:35:41;101208.00;;;9.78;69.79
63088;BME280;49173;43.164;27.786;2023-05-13T03:38:07;101211.38;;;9.83;69.48
63088;BME280;49173;43.164;27.786;2023-05-13T03:40:33;101217.38;;;9.89;68.28
63088;BME280;49173;43.164;27.786;2023-05-13T03:42:59;101209.09;;;9.96;68.10
63088;BME280;49173;43.164;27.786;2023-05-13T03:45:25;101205.41;;;9.98;68.21
63088;BME280;49173;43.164;27.786;2023-05-13T03:47:50;101198.06;;;10.03;68.73
63088;BME280;49173;43.164;27.786;2023-05-13T03:50:16;101196.91;;;10.10;69.32
63088;BME280;49173;43.164;27.786;2023-05-13T03:52:42;101200.22;;;10.17;69.24
63088;BME280;49173;43.164;27.786;2023-05-13T03:55:08;101199.13;;;10.23;68.61
63088;BME280;49173;43.164;27.786;2023-05-13T03:57:34;101197.88;;;10.31;68.80
63088;BME280;49173;43.164;27.786;2023-05-13T03:59:59;101197.38;;;10.43;69.73
63088;BME280;49173;43.164;27.786;2023-05-13T04:02:25;101204.97;;;10.54;70.16
63088;BME280;49173;43.164;27.786;2023-05-13T04:04:51;101197.22;;;10.68;71.07
63088;BME280;49173;43.164;27.786;2023-05-13T04:07:16;101203.63;;;10.86;70.17
63088;BME280;49173;43.164;27.786;2023-05-13T04:09:42;101203.66;;;11.07;68.13
63088;BME280;49173;43.164;27.786;2023-05-13T04:12:08;101198.31;;;11.25;66.60
63088;BME280;49173;43.164;27.786;2023-05-13T04:14:34;101202.81;;;11.45;65.92
63088;BME280;49173;43.164;27.786;2023-05-13T04:16:59;101209.91;;;11.67;66.06
63088;BME280;49173;43.164;27.786;2023-05-13T04:19:25;101211.81;;;11.83;65.02
63088;BME280;49173;43.164;27.786;2023-05-13T04:21:51;101207.34;;;12.03;64.56
63088;BME280;49173;43.164;27.786;2023-05-13T04:24:17;101198.31;;;12.23;62.62
63088;BME280;49173;43.164;27.786;2023-05-13T04:26:42;101201.78;;;12.44;61.61
63088;BME280;49173;43.164;27.786;2023-05-13T04:29:08;101206.25;;;12.62;60.03
63088;BME280;49173;43.164;27.786;2023-05-13T04:31:34;101202.63;;;12.80;59.35
63088;BME280;49173;43.164;27.786;2023-05-13T04:34:00;101211.50;;;13.00;57.28
63088;BME280;49173;43.164;27.786;2023-05-13T04:36:26;101203.41;;;13.17;55.52
63088;BME280;49173;43.164;27.786;2023-05-13T04:38:52;101198.03;;;13.34;55.02
63088;BME280;49173;43.164;27.786;2023-05-13T04:41:17;101205.06;;;13.54;54.60
63088;BME280;49173;43.164;27.786;2023-05-13T04:43:43;101204.78;;;13.76;56.20
63088;BME280;49173;43.164;27.786;2023-05-13T04:46:09;101220.81;;;13.95;56.82
63088;BME280;49173;43.164;27.786;2023-05-13T04:48:34;101221.44;;;14.16;56.14
63088;BME280;49173;43.164;27.786;2023-05-13T04:51:01;101216.84;;;14.34;55.73
63088;BME280;49173;43.164;27.786;2023-05-13T04:53:27;101230.22;;;14.52;54.95
63088;BME280;49173;43.164;27.786;2023-05-13T04:55:53;101222.16;;;14.67;54.67
63088;BME280;49173;43.164;27.786;2023-05-13T04:58:26;101230.16;;;14.84;53.93
63088;BME280;49173;43.164;27.786;2023-05-13T05:00:52;101219.38;;;14.98;53.90
63088;BME280;49173;43.164;27.786;2023-05-13T05:03:20;101223.56;;;15.04;52.10
63088;BME280;49173;43.164;27.786;2023-05-13T05:05:46;101232.84;;;15.14;52.39
63088;BME280;49173;43.164;27.786;2023-05-13T05:08:13;101224.97;;;15.25;53.81
63088;BME280;49173;43.164;27.786;2023-05-13T05:10:38;101226.72;;;15.41;53.65
63088;BME280;49173;43.164;27.786;2023-05-13T05:13:04;101229.47;;;15.55;53.26
63088;BME280;49173;43.164;27.786;2023-05-13T05:15:30;101232.97;;;15.71;52.35
63088;BME280;49173;43.164;27.786;2023-05-13T05:17:56;101227.88;;;15.81;50.89
63088;BME280;49173;43.164;27.786;2023-05-13T05:20:21;101227.75;;;15.97;51.31
63088;BME280;49173;43.164;27.786;2023-05-13T05:22:49;101231.53;;;16.08;51.34
63088;BME280;49173;43.164;27.786;2023-05-13T05:25:15;101231.63;;;16.21;51.33
63088;BME280;49173;43.164;27.786;2023-05-13T05:27:41;101222.13;;;16.28;50.42
63088;BME280;49173;43.164;27.786;2023-05-13T05:30:08;101228.47;;;16.41;49.94
63088;BME280;49173;43.164;27.786;2023-05-13T05:32:47;101221.19;;;16.56;50.19
63088;BME280;49173;43.164;27.786;2023-05-13T05:35:13;101237.47;;;16.69;50.13
63088;BME280;49173;43.164;27.786;2023-05-13T05:37:41;101232.38;;;16.79;50.77
63088;BME280;49173;43.164;27.786;2023-05-13T05:40:07;101223.19;;;16.94;51.75
63088;BME280;49173;43.164;27.786;2023-05-13T05:42:35;101223.41;;;17.03;50.42
63088;BME280;49173;43.164;27.786;2023-05-13T05:45:01;101222.69;;;17.14;50.79
63088;BME280;49173;43.164;27.786;2023-05-13T05:47:26;101224.53;;;17.26;51.31
63088;BME280;49173;43.164;27.786;2023-05-13T05:49:52;101234.22;;;17.30;50.84
63088;BME280;49173;43.164;27.786;2023-05-13T05:52:18;101236.63;;;17.35;50.48
63088;BME280;49173;43.164;27.786;2023-05-13T05:54:44;101235.94;;;17.32;50.21
63088;BME280;49173;43.164;27.786;2023-05-13T05:57:10;101234.22;;;17.30;48.87
63088;BME280;49173;43.164;27.786;2023-05-13T05:59:36;101234.44;;;17.40;49.42
63088;BME280;49173;43.164;27.786;2023-05-13T06:02:01;101236.00;;;17.57;47.53
63088;BME280;49173;43.164;27.786;2023-05-13T06:04:28;101228.53;;;17.73;45.89
63088;BME280;49173;43.164;27.786;2023-05-13T06:06:54;101240.81;;;17.79;43.96
63088;BME280;49173;43.164;27.786;2023-05-13T06:09:20;101236.34;;;17.91;45.46
63088;BME280;49173;43.164;27.786;2023-05-13T06:11:46;101230.88;;;18.03;46.32
63088;BME280;49173;43.164;27.786;2023-05-13T06:14:11;101231.72;;;18.17;45.33
63088;BME280;49173;43.164;27.786;2023-05-13T06:16:37;101230.59;;;18.32;44.37
63088;BME280;49173;43.164;27.786;2023-05-13T06:19:03;101231.69;;;18.42;41.87
63088;BME280;49173;43.164;27.786;2023-05-13T06:21:29;101225.53;;;18.51;42.22
63088;BME280;49173;43.164;27.786;2023-05-13T06:23:56;101229.38;;;18.49;39.77
63088;BME280;49173;43.164;27.786;2023-05-13T06:26:22;101232.84;;;18.51;39.47
63088;BME280;49173;43.164;27.786;2023-05-13T06:28:47;101226.09;;;18.56;38.60
63088;BME280;49173;43.164;27.786;2023-05-13T06:31:13;101232.59;;;18.66;40.72
63088;BME280;49173;43.164;27.786;2023-05-13T06:33:39;101225.88;;;18.83;41.01
63088;BME280;49173;43.164;27.786;2023-05-13T06:36:06;101229.63;;;18.93;40.43
63088;BME280;49173;43.164;27.786;2023-05-13T06:38:34;101214.09;;;19.07;39.24
63088;BME280;49173;43.164;27.786;2023-05-13T06:40:59;101219.31;;;19.10;38.48
63088;BME280;49173;43.164;27.786;2023-05-13T06:43:25;101217.56;;;19.09;39.39
63088;BME280;49173;43.164;27.786;2023-05-13T06:45:51;101226.66;;;19.20;40.54
63088;BME280;49173;43.164;27.786;2023-05-13T06:48:17;101233.75;;;19.34;41.21
63088;BME280;49173;43.164;27.786;2023-05-13T06:50:42;101237.38;;;19.46;39.04
63088;BME280;49173;43.164;27.786;2023-05-13T06:53:09;101232.94;;;19.56;38.29
63088;BME280;49173;43.164;27.786;2023-05-13T06:55:37;101238.06;;;19.72;40.03
63088;BME280;49173;43.164;27.786;2023-05-13T06:58:09;101244.41;;;19.84;38.48
63088;BME280;49173;43.164;27.786;2023-05-13T07:00:36;101246.50;;;19.91;35.89
63088;BME280;49173;43.164;27.786;2023-05-13T07:03:03;101262.09;;;20.00;38.62
63088;BME280;49173;43.164;27.786;2023-05-13T07:05:33;101254.56;;;20.04;35.82
63088;BME280;49173;43.164;27.786;2023-05-13T07:07:58;101242.66;;;19.94;32.53
63088;BME280;49173;43.164;27.786;2023-05-13T07:10:24;101239.06;;;19.82;32.04
63088;BME280;49173;43.164;27.786;2023-05-13T07:12:50;101229.41;;;19.78;32.41
63088;BME280;49173;43.164;27.786;2023-05-13T07:15:17;101230.75;;;19.72;32.34
63088;BME280;49173;43.164;27.786;2023-05-13T07:17:42;101235.09;;;19.86;33.18
63088;BME280;49173;43.164;27.786;2023-05-13T07:20:08;101251.34;;;19.99;34.34
63088;BME280;49173;43.164;27.786;2023-05-13T07:22:34;101238.84;;;19.96;31.45
63088;BME280;49173;43.164;27.786;2023-05-13T07:25:00;101231.03;;;20.03;32.78
63088;BME280;49173;43.164;27.786;2023-05-13T07:27:26;101232.63;;;20.06;33.79
63088;BME280;49173;43.164;27.786;2023-05-13T07:29:53;101235.72;;;20.12;34.34
63088;BME280;49173;43.164;27.786;2023-05-13T07:32:20;101230.66;;;20.19;31.83
63088;BME280;49173;43.164;27.786;2023-05-13T07:34:46;101233.88;;;20.24;32.15
63088;BME280;49173;43.164;27.786;2023-05-13T07:37:12;101240.56;;;20.31;31.85
63088;BME280;49173;43.164;27.786;2023-05-13T07:39:38;101234.34;;;20.40;32.24
63088;BME280;49173;43.164;27.786;2023-05-13T07:42:03;101232.59;;;20.39;30.31
63088;BME280;49173;43.164;27.786;2023-05-13T07:44:29;101231.25;;;20.34;30.80
63088;BME280;49173;43.164;27.786;2023-05-13T07:46:55;101240.16;;;20.36;31.95
63088;BME280;49173;43.164;27.786;2023-05-13T07:49:21;101232.13;;;20.45;30.37
63088;BME280;49173;43.164;27.786;2023-05-13T07:51:47;101225.69;;;20.46;29.84
63088;BME280;49173;43.164;27.786;2023-05-13T07:54:19;101229.13;;;20.60;30.72
63088;BME280;49173;43.164;27.786;2023-05-13T07:56:45;101228.72;;;20.64;28.91
63088;BME280;49173;43.164;27.786;2023-05-13T07:59:12;101228.00;;;20.62;30.56
63088;BME280;49173;43.164;27.786;2023-05-13T08:01:38;101222.19;;;20.55;30.16
63088;BME280;49173;43.164;27.786;2023-05-13T08:04:04;101213.91;;;20.46;29.60
63088;BME280;49173;43.164;27.786;2023-05-13T08:06:30;101213.16;;;20.44;30.19
63088;BME280;49173;43.164;27.786;2023-05-13T08:08:56;101202.16;;;20.45;29.58
63088;BME280;49173;43.164;27.786;2023-05-13T08:11:22;101191.84;;;20.38;30.03
63088;BME280;49173;43.164;27.786;2023-05-13T08:13:48;101193.06;;;20.34;28.65
63088;BME280;49173;43.164;27.786;2023-05-13T08:16:14;101180.31;;;20.34;29.85
63088;BME280;49173;43.164;27.786;2023-05-13T08:18:40;101182.16;;;20.34;29.05
63088;BME280;49173;43.164;27.786;2023-05-13T08:21:05;101186.25;;;20.28;28.59
63088;BME280;49173;43.164;27.786;2023-05-13T08:23:35;101188.41;;;20.13;29.04
63088;BME280;49173;43.164;27.786;2023-05-13T08:26:01;101200.44;;;20.11;30.01
63088;BME280;49173;43.164;27.786;2023-05-13T08:28:27;101200.66;;;20.08;29.15
63088;BME280;49173;43.164;27.786;2023-05-13T08:30:54;101194.34;;;20.07;29.36
63088;BME280;49173;43.164;27.786;2023-05-13T08:33:22;101194.47;;;20.17;31.18
63088;BME280;49173;43.164;27.786;2023-05-13T08:35:48;101196.81;;;20.33;31.42
63088;BME280;49173;43.164;27.786;2023-05-13T08:38:14;101188.75;;;20.31;29.26
63088;BME280;49173;43.164;27.786;2023-05-13T08:40:41;101195.22;;;20.30;30.61
63088;BME280;49173;43.164;27.786;2023-05-13T08:43:07;101190.63;;;20.30;30.73
63088;BME280;49173;43.164;27.786;2023-05-13T08:45:35;101189.75;;;20.30;31.24
63088;BME280;49173;43.164;27.786;2023-05-13T08:48:03;101201.53;;;20.30;30.46
63088;BME280;49173;43.164;27.786;2023-05-13T08:50:30;101203.13;;;20.22;28.66
63088;BME280;49173;43.164;27.786;2023-05-13T08:52:57;101192.97;;;20.24;28.82
63088;BME280;49173;43.164;27.786;2023-05-13T08:55:25;101198.66;;;20.32;30.92
63088;BME280;49173;43.164;27.786;2023-05-13T08:57:51;101202.75;;;20.38;30.16
63088;BME280;49173;43.164;27.786;2023-05-13T09:00:18;101194.56;;;20.26;29.90
63088;BME280;49173;43.164;27.786;2023-05-13T09:02:43;101191.72;;;20.28;29.64
63088;BME280;49173;43.164;27.786;2023-05-13T09:05:09;101203.66;;;20.16;28.76
63088;BME280;49173;43.164;27.786;2023-05-13T09:07:37;101199.19;;;20.03;29.85
63088;BME280;49173;43.164;27.786;2023-05-13T09:10:04;101202.16;;;20.00;29.65
63088;BME280;49173;43.164;27.786;2023-05-13T09:12:53;101198.06;;;20.06;29.66
63088;BME280;49173;43.164;27.786;2023-05-13T09:15:24;101204.28;;;19.97;29.91
63088;BME280;49173;43.164;27.786;2023-05-13T09:18:02;101204.00;;;20.00;30.39
63088;BME280;49173;43.164;27.786;2023-05-13T09:20:28;101196.59;;;19.91;29.17
63088;BME280;49173;43.164;27.786;2023-05-13T09:25:25;101203.03;;;19.90;30.62
63088;BME280;49173;43.164;27.786;2023-05-13T09:27:53;101196.34;;;19.94;29.41
63088;BME280;49173;43.164;27.786;2023-05-13T09:30:23;101196.22;;;19.95;30.43
63088;BME280;49173;43.164;27.786;2023-05-13T09:33:08;101196.59;;;20.02;31.55
63088;BME280;49173;43.164;27.786;2023-05-13T09:35:36;101192.97;;;20.13;29.98
63088;BME280;49173;43.164;27.786;2023-05-13T09:38:16;101191.50;;;20.20;31.38
63088;BME280;49173;43.164;27.786;2023-05-13T09:41:08;101208.31;;;20.36;31.62
63088;BME280;49173;43.164;27.786;2023-05-13T09:43:37;101207.34;;;20.37;29.10
63088;BME280;49173;43.164;27.786;2023-05-13T09:46:04;101206.72;;;20.22;29.17
63088;BME280;49173;43.164;27.786;2023-05-13T09:48:33;101197.22;;;20.17;29.96
63088;BME280;49173;43.164;27.786;2023-05-13T09:51:00;101200.28;;;20.23;30.28
63088;BME280;49173;43.164;27.786;2023-05-13T09:53:27;101200.25;;;20.35;30.39
63088;BME280;49173;43.164;27.786;2023-05-13T09:55:54;101206.81;;;20.43;30.14
63088;BME280;49173;43.164;27.786;2023-05-13T09:58:21;101194.97;;;20.44;28.90
63088;BME280;49173;43.164;27.786;2023-05-13T10:00:50;101190.72;;;20.40;29.17
63088;BME280;49173;43.164;27.786;2023-05-13T10:03:16;101199.41;;;20.45;31.42
63088;BME280;49173;43.164;27.786;2023-05-13T10:05:42;101197.50;;;20.57;34.51
63088;BME280;49173;43.164;27.786;2023-05-13T10:08:11;101189.56;;;20.65;31.75
63088;BME280;49173;43.164;27.786;2023-05-13T10:10:39;101178.53;;;20.67;30.34
63088;BME280;49173;43.164;27.786;2023-05-13T10:13:24;101179.94;;;20.82;31.09
63088;BME280;49173;43.164;27.786;2023-05-13T10:15:52;101189.47;;;20.88;29.62
63088;BME280;49173;43.164;27.786;2023-05-13T10:18:20;101172.34;;;20.85;29.59
63088;BME280;49173;43.164;27.786;2023-05-13T10:20:47;101168.38;;;20.90;30.04
63088;BME280;49173;43.164;27.786;2023-05-13T10:23:19;101162.97;;;20.99;29.37
63088;BME280;49173;43.164;27.786;2023-05-13T10:25:49;101177.41;;;21.22;31.34
63088;BME280;49173;43.164;27.786;2023-05-13T10:28:16;101165.63;;;21.43;31.26
63088;BME280;49173;43.164;27.786;2023-05-13T10:30:43;101168.41;;;21.52;29.93
63088;BME280;49173;43.164;27.786;2023-05-13T10:33:10;101168.00;;;21.57;28.86
63088;BME280;49173;43.164;27.786;2023-05-13T10:35:39;101161.66;;;21.56;29.18
63088;BME280;49173;43.164;27.786;2023-05-13T10:43:34;101161.88;;;21.64;31.40
63088;BME280;49173;43.164;27.786;2023-05-13T10:46:10;101157.59;;;21.72;30.11
63088;BME280;49173;43.164;27.786;2023-05-13T10:48:57;101148.72;;;21.89;31.11
63088;BME280;49173;43.164;27.786;2023-05-13T10:51:24;101143.25;;;21.89;30.50
63088;BME280;49173;43.164;27.786;2023-05-13T10:53:53;101145.13;;;21.88;33.20
63088;BME280;49173;43.164;27.786;2023-05-13T10:56:21;101138.25;;;21.94;30.59
63088;BME280;49173;43.164;27.786;2023-05-13T10:58:59;101144.84;;;21.91;30.52
63088;BME280;49173;43.164;27.786;2023-05-13T11:01:34;101145.59;;;21.93;31.06
63088;BME280;49173;43.164;27.786;2023-05-13T11:04:02;101142.41;;;21.98;28.57
63088;BME280;49173;43.164;27.786;2023-05-13T11:06:35;101153.63;;;21.85;30.65
63088;BME280;49173;43.164;27.786;2023-05-13T11:09:07;101155.50;;;21.85;31.09
63088;BME280;49173;43.164;27.786;2023-05-13T11:11:34;101146.72;;;21.91;29.82
63088;BME280;49173;43.164;27.786;2023-05-13T11:14:13;101149.19;;;21.94;30.05
63088;BME280;49173;43.164;27.786;2023-05-13T11:19:24;101159.09;;;21.95;28.86
63088;BME280;49173;43.164;27.786;2023-05-13T11:21:55;101153.66;;;21.95;28.91
63088;BME280;49173;43.164;27.786;2023-05-13T11:24:25;101159.97;;;21.96;29.15
63088;BME280;49173;43.164;27.786;2023-05-13T11:26:56;101164.88;;;22.02;27.83
63088;BME280;49173;43.164;27.786;2023-05-13T11:29:32;101151.31;;;21.90;28.58
63088;BME280;49173;43.164;27.786;2023-05-13T11:32:03;101145.81;;;21.81;28.70
63088;BME280;49173;43.164;27.786;2023-05-13T11:34:31;101150.94;;;21.64;28.46
63088;BME280;49173;43.164;27.786;2023-05-13T11:37:13;101153.75;;;21.53;29.65
63088;BME280;49173;43.164;27.786;2023-05-13T11:39:40;101144.00;;;21.60;29.51
63088;BME280;49173;43.164;27.786;2023-05-13T11:42:13;101138.16;;;21.75;28.54
63088;BME280;49173;43.164;27.786;2023-05-13T11:44:48;101143.38;;;21.78;28.70
63088;BME280;49173;43.164;27.786;2023-05-13T11:47:24;101148.47;;;21.92;31.11
63088;BME280;49173;43.164;27.786;2023-05-13T11:50:15;101150.56;;;22.09;30.50
63088;BME280;49173;43.164;27.786;2023-05-13T11:52:42;101145.28;;;21.97;26.86
63088;BME280;49173;43.164;27.786;2023-05-13T11:55:09;101160.97;;;21.85;27.15
63088;BME280;49173;43.164;27.786;2023-05-13T11:57:38;101160.50;;;21.80;27.26
63088;BME280;49173;43.164;27.786;2023-05-13T12:00:05;101171.50;;;21.99;28.09
63088;BME280;49173;43.164;27.786;2023-05-13T12:02:38;101169.94;;;22.06;28.07
63088;BME280;49173;43.164;27.786;2023-05-13T12:05:11;101170.88;;;22.26;29.79
63088;BME280;49173;43.164;27.786;2023-05-13T12:07:38;101168.59;;;22.31;28.06
63088;BME280;49173;43.164;27.786;2023-05-13T12:10:14;101163.84;;;22.33;26.52
63088;BME280;49173;43.164;27.786;2023-05-13T12:12:43;101170.91;;;22.36;27.32
63088;BME280;49173;43.164;27.786;2023-05-13T12:15:13;101173.91;;;22.33;27.73
63088;BME280;49173;43.164;27.786;2023-05-13T12:17:58;101167.88;;;22.39;26.94
63088;BME280;49173;43.164;27.786;2023-05-13T12:20:28;101172.19;;;22.32;26.39
63088;BME280;49173;43.164;27.786;2023-05-13T12:22:55;101162.13;;;22.32;27.29
63088;BME280;49173;43.164;27.786;2023-05-13T12:25:49;101176.97;;;22.39;28.03
63088;BME280;49173;43.164;27.786;2023-05-13T12:28:25;101167.63;;;22.42;26.75
63088;BME280;49173;43.164;27.786;2023-05-13T12:30:56;101176.13;;;22.58;28.01
63088;BME280;49173;43.164;27.786;2023-05-13T12:33:32;101158.72;;;22.59;28.26
63088;BME280;49173;43.164;27.786;2023-05-13T12:39:00;101158.56;;;22.80;28.62
63088;BME280;49173;43.164;27.786;2023-05-13T12:41:33;101167.38;;;22.64;28.51
63088;BME280;49173;43.164;27.786;2023-05-13T12:44:04;101160.16;;;22.63;28.55
63088;BME280;49173;43.164;27.786;2023-05-13T12:46:35;101161.84;;;22.55;28.10
63088;BME280;49173;43.164;27.786;2023-05-13T12:49:04;101159.31;;;22.63;29.08
63088;BME280;49173;43.164;27.786;2023-05-13T12:51:31;101163.59;;;22.75;28.99
63088;BME280;49173;43.164;27.786;2023-05-13T12:54:00;101152.69;;;22.85;28.32
63088;BME280;49173;43.164;27.786;2023-05-13T12:56:29;101150.06;;;22.83;27.93
63088;BME280;49173;43.164;27.786;2023-05-13T12:58:57;101150.78;;;22.75;28.55
63088;BME280;49173;43.164;27.786;2023-05-13T13:01:25;101145.47;;;22.84;29.02